Time;durP1;ratioP1;P1;durP2;ratioP2;P2;SDS_P1;SDS_P2;PMS_P1;PMS_P2;Temp;Humidity;BMP_temperature;BMP_pressure;BME280_temperature;BME280_humidity;BME280_pressure;Samples;Min_cycle;Max_cycle;Signal;HPM_P1;HPM_P2
2024/01/12 00:00:06;;;;;;;6.80;4.30;;;8.20;46.60;;;;;;349675;28;939;-56
2024/01/12 00:00:17;;;;;;;6.47;4.47;;;8.20;46.60;;;;;;349690;28;1044;-57
2024/01/12 00:00:28;;;;;;;7.85;4.55;;;8.20;46.50;;;;;;349608;28;1080;-58
2024/01/12 00:00:38;;;;;;;8.00;4.47;;;8.20;46.50;;;;;;349647;28;936;-56
2024/01/12 00:00:49;;;;;;;7.25;4.50;;;8.20;46.50;;;;;;349665;28;1409;-56
2024/01/12 00:01:00;;;;;;;5.95;4.50;;;8.20;46.50;;;;;;349624;28;1445;-57
2024/01/12 00:01:12;;;;;;;6.90;4.55;;;8.20;46.40;;;;;;349558;28;1020;-57
2024/01/12 00:01:23;;;;;;;7.32;4.57;;;8.20;46.40;;;;;;349643;28;1126;-56
2024/01/12 00:01:35;;;;;;;7.57;4.72;;;8.20;46.50;;;;;;349652;28;967;-56
2024/01/12 00:01:45;;;;;;;7.53;4.85;;;8.20;46.50;;;;;;349582;28;1093;-57
2024/01/12 00:01:57;;;;;;;8.27;4.85;;;8.20;46.50;;;;;;349665;28;1018;-57
2024/01/12 00:02:08;;;;;;;7.93;4.85;;;8.20;46.50;;;;;;349623;28;1004;-57
2024/01/12 00:02:19;;;;;;;7.75;4.72;;;8.20;46.50;;;;;;349638;28;1078;-56
2024/01/12 00:02:30;;;;;;;6.80;4.60;;;8.20;46.50;;;;;;349669;28;975;-57
2024/01/12 00:02:40;;;;;;;7.15;4.60;;;8.20;46.50;;;;;;349696;28;845;-57
2024/01/12 00:02:51;;;;;;;7.03;4.70;;;8.20;46.40;;;;;;349533;28;1042;-57
2024/01/12 00:03:04;;;;;;;7.87;5.07;;;8.20;46.40;;;;;;349478;28;1992;-58
2024/01/12 00:03:14;;;;;;;8.25;5.80;;;8.20;46.40;;;;;;349513;28;967;-58
2024/01/12 00:03:25;;;;;;;8.48;6.10;;;8.10;46.40;;;;;;349583;28;872;-57
2024/01/12 00:03:36;;;;;;;8.38;6.07;;;8.20;46.40;;;;;;349525;28;1091;-57
2024/01/12 00:03:47;;;;;;;8.35;5.75;;;8.20;46.30;;;;;;349516;28;1311;-57
2024/01/12 00:03:58;;;;;;;8.10;5.63;;;8.20;46.30;;;;;;349458;28;1026;-56
2024/01/12 00:04:08;;;;;;;7.85;5.65;;;8.20;46.30;;;;;;349534;28;1582;-57
2024/01/12 00:04:19;;;;;;;7.75;5.60;;;8.10;46.30;;;;;;349553;28;770;-57
2024/01/12 00:04:30;;;;;;;8.30;5.40;;;8.20;46.30;;;;;;349526;28;1693;-57
2024/01/12 00:04:41;;;;;;;8.15;5.15;;;8.10;46.30;;;;;;349562;28;833;-58
2024/01/12 00:04:51;;;;;;;7.37;4.93;;;8.10;46.40;;;;;;349485;28;1502;-58
2024/01/12 00:05:02;;;;;;;6.20;4.53;;;8.10;46.50;;;;;;349691;28;1837;-57
2024/01/12 00:05:13;;;;;;;5.22;4.07;;;8.10;46.50;;;;;;349675;28;1094;-57
2024/01/12 00:05:24;;;;;;;4.95;3.75;;;8.10;46.60;;;;;;349660;28;841;-57
2024/01/12 00:05:35;;;;;;;4.75;3.53;;;8.10;46.60;;;;;;349689;28;1053;-57
2024/01/12 00:05:46;;;;;;;4.93;3.38;;;8.10;46.70;;;;;;349557;28;1054;-56
2024/01/12 00:05:57;;;;;;;4.53;3.17;;;8.10;46.70;;;;;;349647;28;987;-57
2024/01/12 00:06:07;;;;;;;4.45;3.22;;;8.10;46.70;;;;;;349710;28;1019;-56
2024/01/12 00:06:18;;;;;;;4.13;3.25;;;8.10;46.70;;;;;;349755;28;1043;-57
2024/01/12 00:06:29;;;;;;;3.97;3.27;;;8.10;46.70;;;;;;349752;28;967;-57
2024/01/12 00:06:40;;;;;;;3.85;3.22;;;8.10;46.60;;;;;;349660;28;996;-57
2024/01/12 00:06:51;;;;;;;3.97;3.17;;;8.10;46.70;;;;;;349877;28;1057;-56
2024/01/12 00:07:01;;;;;;;4.30;3.38;;;8.10;46.70;;;;;;349996;28;899;-57
2024/01/12 00:07:12;;;;;;;4.68;3.45;;;8.10;46.70;;;;;;349869;28;860;-57
2024/01/12 00:07:23;;;;;;;4.30;3.38;;;8.10;46.60;;;;;;349778;28;1094;-57
2024/01/12 00:07:34;;;;;;;4.50;3.35;;;8.10;46.60;;;;;;349823;28;955;-57
2024/01/12 00:07:45;;;;;;;4.30;3.37;;;8.10;46.70;;;;;;349799;28;1086;-57
2024/01/12 00:07:55;;;;;;;4.75;3.58;;;8.10;46.70;;;;;;349913;28;852;-58
2024/01/12 00:08:06;;;;;;;4.85;3.65;;;8.10;46.60;;;;;;349802;28;1197;-57
2024/01/12 00:08:17;;;;;;;5.28;3.70;;;8.10;46.50;;;;;;349887;28;1135;-56
2024/01/12 00:08:28;;;;;;;4.63;3.30;;;8.10;46.40;;;;;;349873;28;1009;-57
2024/01/12 00:08:39;;;;;;;3.88;2.97;;;8.20;46.20;;;;;;349851;28;1179;-59
2024/01/12 00:08:50;;;;;;;3.72;2.80;;;8.20;46.00;;;;;;349882;28;1015;-57
2024/01/12 00:09:01;;;;;;;5.55;3.00;;;8.20;45.90;;;;;;349809;28;1011;-56
2024/01/12 00:09:12;;;;;;;6.07;3.10;;;8.20;45.90;;;;;;349721;28;972;-57
2024/01/12 00:09:23;;;;;;;5.95;3.30;;;8.20;45.90;;;;;;349745;28;978;-58
2024/01/12 00:09:34;;;;;;;4.85;3.40;;;8.10;46.00;;;;;;349723;28;1021;-57
2024/01/12 00:09:45;;;;;;;4.60;3.30;;;8.10;46.10;;;;;;349768;28;970;-58
2024/01/12 00:09:56;;;;;;;4.45;3.20;;;8.10;46.10;;;;;;349716;28;871;-57
2024/01/12 00:10:08;;;;;;;4.05;2.95;;;8.10;46.20;;;;;;349838;28;1018;-56
2024/01/12 00:10:19;;;;;;;4.10;3.20;;;8.10;46.20;;;;;;349599;28;1044;-57
2024/01/12 00:10:30;;;;;;;4.38;3.30;;;8.10;46.20;;;;;;349758;28;884;-57
2024/01/12 00:10:41;;;;;;;4.13;3.00;;;8.10;46.30;;;;;;349695;28;1383;-57
2024/01/12 00:10:52;;;;;;;4.15;2.90;;;8.10;46.30;;;;;;349572;28;959;-56
2024/01/12 00:11:03;;;;;;;3.70;2.80;;;8.10;46.40;;;;;;349467;28;1148;-57
2024/01/12 00:11:13;;;;;;;3.50;2.80;;;8.10;46.40;;;;;;349534;28;910;-56
2024/01/12 00:11:24;;;;;;;3.50;2.80;;;8.10;46.40;;;;;;349578;28;1147;-56
2024/01/12 00:11:35;;;;;;;3.60;2.92;;;8.10;46.20;;;;;;349502;28;1494;-57
2024/01/12 00:11:45;;;;;;;3.80;3.03;;;8.10;46.20;;;;;;349712;28;1910;-56
2024/01/12 00:11:56;;;;;;;4.37;3.03;;;8.00;46.20;;;;;;349710;28;1010;-56
2024/01/12 00:12:07;;;;;;;4.45;2.92;;;8.10;46.20;;;;;;349721;28;1003;-56
2024/01/12 00:12:18;;;;;;;4.22;2.83;;;8.10;46.20;;;;;;349588;28;1013;-56
2024/01/12 00:12:29;;;;;;;3.42;2.88;;;8.10;46.20;;;;;;349736;28;1002;-57
2024/01/12 00:12:40;;;;;;;3.67;2.92;;;8.10;46.20;;;;;;349731;28;1133;-56
2024/01/12 00:12:50;;;;;;;3.83;3.03;;;8.10;46.20;;;;;;349868;28;1153;-56
2024/01/12 00:13:01;;;;;;;4.50;3.17;;;8.10;46.20;;;;;;349901;28;1030;-56
2024/01/12 00:13:12;;;;;;;4.87;3.10;;;8.00;46.20;;;;;;349952;28;1097;-58
2024/01/12 00:13:23;;;;;;;5.28;3.20;;;8.00;46.20;;;;;;349750;28;898;-57
2024/01/12 00:13:33;;;;;;;5.25;3.42;;;8.00;46.20;;;;;;349754;28;835;-57
2024/01/12 00:13:44;;;;;;;5.28;3.70;;;8.00;46.20;;;;;;349665;28;1136;-57
2024/01/12 00:13:55;;;;;;;5.82;3.90;;;8.00;46.20;;;;;;349616;28;1189;-57
2024/01/12 00:14:06;;;;;;;6.50;3.87;;;8.00;46.20;;;;;;349529;28;1066;-57
2024/01/12 00:14:17;;;;;;;6.23;3.87;;;8.00;46.30;;;;;;349691;28;1019;-57
2024/01/12 00:14:28;;;;;;;6.47;4.15;;;8.00;46.20;;;;;;349643;28;919;-58
2024/01/12 00:14:38;;;;;;;5.80;4.20;;;8.00;46.20;;;;;;349571;28;1034;-56
2024/01/12 00:14:49;;;;;;;5.28;3.90;;;8.00;46.20;;;;;;349659;28;1049;-56
2024/01/12 00:15:00;;;;;;;4.85;3.58;;;8.00;46.20;;;;;;349650;28;1417;-58
2024/01/12 00:15:11;;;;;;;4.78;3.65;;;8.00;46.20;;;;;;349522;28;1181;-57
2024/01/12 00:15:22;;;;;;;5.63;4.10;;;8.00;46.10;;;;;;349681;28;892;-57
2024/01/12 00:15:33;;;;;;;5.90;4.20;;;8.00;46.10;;;;;;349647;28;983;-58
2024/01/12 00:15:44;;;;;;;5.95;3.85;;;8.00;46.10;;;;;;349586;28;1017;-57
2024/01/12 00:15:54;;;;;;;4.90;3.50;;;8.10;46.10;;;;;;349689;28;966;-56
2024/01/12 00:16:06;;;;;;;4.70;3.27;;;8.00;46.10;;;;;;349711;28;935;-57
2024/01/12 00:16:20;;;;;;;4.60;3.53;;;8.00;46.20;;;;;;349628;28;991;-57
2024/01/12 00:16:31;;;;;;;5.80;4.22;;;8.00;46.20;;;;;;349652;28;1061;-58
2024/01/12 00:16:44;;;;;;;7.90;4.70;;;8.00;46.20;;;;;;349685;28;824;-57
2024/01/12 00:16:55;;;;;;;8.15;4.40;;;8.00;46.20;;;;;;349638;28;1109;-57
2024/01/12 00:17:05;;;;;;;7.60;4.32;;;8.00;46.20;;;;;;349623;28;1010;-56
2024/01/12 00:17:19;;;;;;;6.90;4.18;;;8.00;46.20;;;;;;349644;28;932;-56
2024/01/12 00:17:30;;;;;;;6.50;3.95;;;8.00;46.30;;;;;;349662;28;1034;-56
2024/01/12 00:17:41;;;;;;;5.53;3.87;;;8.00;46.40;;;;;;349626;28;1161;-56
2024/01/12 00:17:51;;;;;;;5.83;4.40;;;8.00;46.40;;;;;;349580;28;1066;-57
2024/01/12 00:18:02;;;;;;;5.85;4.40;;;8.00;46.40;;;;;;349645;28;1022;-56
2024/01/12 00:18:13;;;;;;;5.70;4.03;;;8.00;46.40;;;;;;349639;28;1011;-57
2024/01/12 00:18:24;;;;;;;4.97;3.58;;;8.00;46.40;;;;;;349645;28;979;-57
2024/01/12 00:18:35;;;;;;;5.13;3.55;;;8.00;46.40;;;;;;349604;28;957;-56
2024/01/12 00:18:45;;;;;;;5.18;3.60;;;8.00;46.40;;;;;;349665;28;962;-57
2024/01/12 00:18:56;;;;;;;5.23;3.70;;;8.00;46.40;;;;;;349615;28;1153;-56
2024/01/12 00:19:07;;;;;;;4.68;3.60;;;8.00;46.30;;;;;;349680;28;963;-57
2024/01/12 00:19:19;;;;;;;5.15;3.83;;;8.00;46.30;;;;;;349543;28;1580;-56
2024/01/12 00:19:30;;;;;;;5.18;3.88;;;8.00;46.20;;;;;;349629;28;979;-58
2024/01/12 00:19:41;;;;;;;5.07;3.97;;;8.00;46.20;;;;;;349664;28;880;-57
2024/01/12 00:19:52;;;;;;;5.15;4.22;;;8.00;46.20;;;;;;349699;28;1186;-58
2024/01/12 00:20:06;;;;;;;5.13;4.32;;;8.00;46.20;;;;;;349619;28;1029;-55
2024/01/12 00:20:16;;;;;;;6.55;4.55;;;8.00;46.20;;;;;;349603;28;991;-58
2024/01/12 00:20:27;;;;;;;7.13;4.85;;;8.00;46.20;;;;;;349693;28;821;-57
2024/01/12 00:20:42;;;;;;;7.03;5.07;;;8.00;46.20;;;;;;349631;28;1019;-62
2024/01/12 00:20:53;;;;;;;6.60;4.68;;;8.00;46.20;;;;;;349637;28;1089;-59
2024/01/12 00:21:04;;;;;;;6.18;4.20;;;8.00;46.20;;;;;;349700;28;908;-57
2024/01/12 00:21:15;;;;;;;5.45;4.05;;;8.00;46.20;;;;;;349659;28;876;-58
2024/01/12 00:21:26;;;;;;;5.10;4.00;;;8.00;46.20;;;;;;349670;28;893;-56
2024/01/12 00:21:36;;;;;;;5.88;4.20;;;8.00;46.20;;;;;;349574;28;1094;-57
2024/01/12 00:21:47;;;;;;;7.30;4.47;;;8.00;46.20;;;;;;349651;28;816;-56
2024/01/12 00:21:58;;;;;;;7.43;4.75;;;8.00;46.20;;;;;;349626;28;1075;-56
2024/01/12 00:22:09;;;;;;;6.72;4.63;;;8.00;46.20;;;;;;349550;28;1096;-56
2024/01/12 00:22:20;;;;;;;6.18;4.60;;;8.00;46.30;;;;;;349652;28;1031;-56
2024/01/12 00:22:30;;;;;;;6.40;4.67;;;8.00;46.30;;;;;;349684;28;1470;-56
2024/01/12 00:22:41;;;;;;;6.45;4.43;;;8.00;46.40;;;;;;349538;28;1098;-58
2024/01/12 00:22:56;;;;;;;5.88;4.07;;;8.00;46.40;;;;;;349669;28;935;-56
2024/01/12 00:23:06;;;;;;;6.35;4.13;;;8.00;46.30;;;;;;349658;28;1156;-56
2024/01/12 00:23:17;;;;;;;5.77;4.20;;;8.00;46.20;;;;;;349571;28;1047;-58
2024/01/12 00:23:28;;;;;;;5.63;4.15;;;8.00;46.20;;;;;;349642;28;900;-58
2024/01/12 00:23:39;;;;;;;6.10;4.28;;;7.90;46.20;;;;;;349639;28;1038;-56
2024/01/12 00:23:50;;;;;;;6.60;4.18;;;8.00;46.20;;;;;;349560;28;1304;-56
2024/01/12 00:24:00;;;;;;;6.10;4.00;;;8.00;46.10;;;;;;349634;28;1094;-56
2024/01/12 00:24:11;;;;;;;5.47;3.72;;;8.00;46.10;;;;;;349620;28;1074;-57
2024/01/12 00:24:22;;;;;;;4.90;3.63;;;8.00;46.10;;;;;;349573;28;1504;-56
2024/01/12 00:24:33;;;;;;;5.78;3.95;;;8.00;46.00;;;;;;349644;28;1153;-58
2024/01/12 00:24:44;;;;;;;5.87;4.17;;;8.00;46.00;;;;;;349587;28;1503;-57
2024/01/12 00:24:54;;;;;;;6.10;4.03;;;8.00;46.00;;;;;;349519;28;1289;-57
2024/01/12 00:25:05;;;;;;;5.30;3.67;;;8.00;46.00;;;;;;349679;28;1047;-56
2024/01/12 00:25:16;;;;;;;13.48;12.10;;;8.00;45.90;;;;;;349583;28;1205;-58
2024/01/12 00:25:27;;;;;;;14.57;13.00;;;8.00;45.90;;;;;;349575;28;1160;-57
2024/01/12 00:25:38;;;;;;;14.30;12.80;;;7.90;45.90;;;;;;349707;28;983;-58
2024/01/12 00:25:49;;;;;;;5.67;3.77;;;7.90;45.90;;;;;;349709;28;904;-58
2024/01/12 00:25:59;;;;;;;5.03;3.30;;;8.00;45.90;;;;;;349591;28;1004;-58
2024/01/12 00:26:10;;;;;;;5.40;3.40;;;7.90;45.90;;;;;;349667;28;1022;-57
2024/01/12 00:26:21;;;;;;;4.68;3.28;;;7.90;45.90;;;;;;349584;28;1180;-57
2024/01/12 00:26:32;;;;;;;4.57;3.20;;;7.90;46.00;;;;;;349579;28;1889;-57
2024/01/12 00:26:42;;;;;;;4.50;3.10;;;7.80;46.00;;;;;;349729;28;813;-57
2024/01/12 00:26:53;;;;;;;4.00;2.97;;;7.90;46.10;;;;;;349621;28;1034;-57
2024/01/12 00:27:04;;;;;;;4.13;3.10;;;7.90;46.10;;;;;;349589;28;1279;-58
2024/01/12 00:27:15;;;;;;;4.78;3.42;;;7.80;46.10;;;;;;349575;28;879;-57
2024/01/12 00:27:26;;;;;;;5.57;3.92;;;7.80;46.20;;;;;;349459;28;1038;-56
2024/01/12 00:27:36;;;;;;;5.45;4.10;;;7.80;46.20;;;;;;349539;28;907;-57
2024/01/12 00:27:47;;;;;;;5.07;4.03;;;7.80;46.20;;;;;;349471;28;1253;-56
2024/01/12 00:27:58;;;;;;;4.93;3.90;;;7.80;46.20;;;;;;349551;28;1034;-58
2024/01/12 00:28:09;;;;;;;4.70;3.50;;;7.80;46.20;;;;;;349524;28;809;-58
2024/01/12 00:28:19;;;;;;;4.97;3.60;;;7.80;46.30;;;;;;349444;28;1990;-56
2024/01/12 00:28:33;;;;;;;5.63;4.00;;;7.80;46.30;;;;;;349536;28;1054;-57
2024/01/12 00:28:44;;;;;;;5.63;4.13;;;7.80;46.40;;;;;;349519;28;1196;-59
2024/01/12 00:28:54;;;;;;;5.17;3.87;;;7.80;46.40;;;;;;349508;28;1031;-57
2024/01/12 00:29:05;;;;;;;4.35;3.40;;;7.80;46.40;;;;;;349534;28;836;-57
2024/01/12 00:29:16;;;;;;;4.40;3.28;;;7.80;46.30;;;;;;349490;28;969;-56
2024/01/12 00:29:26;;;;;;;4.43;3.13;;;7.80;46.20;;;;;;349660;28;1558;-55
2024/01/12 00:29:37;;;;;;;4.77;3.20;;;7.80;46.20;;;;;;349691;28;821;-57
2024/01/12 00:29:48;;;;;;;4.60;3.20;;;7.90;46.10;;;;;;349690;28;959;-57
2024/01/12 00:29:59;;;;;;;4.40;3.05;;;7.80;46.00;;;;;;349666;28;832;-57
2024/01/12 00:30:10;;;;;;;3.65;3.05;;;7.80;45.90;;;;;;349521;28;1026;-56
2024/01/12 00:30:20;;;;;;;3.25;2.90;;;7.80;45.90;;;;;;349654;28;1054;-57
2024/01/12 00:30:31;;;;;;;3.60;2.97;;;7.80;45.90;;;;;;349631;28;1086;-57
2024/01/12 00:30:45;;;;;;;3.83;2.90;;;7.80;45.90;;;;;;349706;28;1006;-56
2024/01/12 00:30:55;;;;;;;4.28;2.90;;;7.80;45.90;;;;;;349612;28;881;-57
2024/01/12 00:31:06;;;;;;;3.88;2.83;;;7.80;45.80;;;;;;349553;28;1927;-57
2024/01/12 00:31:17;;;;;;;4.50;2.80;;;7.80;45.90;;;;;;349596;28;1105;-58
2024/01/12 00:31:28;;;;;;;4.45;2.90;;;7.80;45.90;;;;;;349649;28;1046;-56
2024/01/12 00:31:38;;;;;;;4.40;2.87;;;7.80;46.00;;;;;;349703;28;793;-57
2024/01/12 00:31:49;;;;;;;4.20;2.75;;;7.80;46.00;;;;;;349555;28;1969;-56
2024/01/12 00:32:00;;;;;;;4.43;2.92;;;7.70;46.00;;;;;;349539;28;1492;-57
2024/01/12 00:32:11;;;;;;;5.10;3.13;;;7.80;46.10;;;;;;349681;28;1019;-58
2024/01/12 00:32:22;;;;;;;4.25;3.00;;;7.70;46.20;;;;;;349530;28;1224;-55
2024/01/12 00:32:38;;;;;;;4.30;2.90;;;7.70;46.20;;;;;;349621;28;1102;-56
2024/01/12 00:32:48;;;;;;;4.22;3.05;;;7.70;46.30;;;;;;349580;28;992;-58
2024/01/12 00:32:59;;;;;;;3.83;2.93;;;7.70;46.30;;;;;;349702;28;856;-57
2024/01/12 00:33:12;;;;;;;3.88;2.90;;;7.70;46.30;;;;;;349633;28;879;-56
2024/01/12 00:33:23;;;;;;;3.60;2.92;;;7.70;46.30;;;;;;349653;28;1037;-57
2024/01/12 00:33:33;;;;;;;3.60;2.90;;;7.70;46.40;;;;;;349599;28;967;-56
2024/01/12 00:33:44;;;;;;;3.77;2.83;;;7.70;46.40;;;;;;349670;28;857;-56
2024/01/12 00:33:55;;;;;;;3.75;2.67;;;7.70;46.40;;;;;;349659;28;967;-56
2024/01/12 00:34:06;;;;;;;3.30;2.50;;;7.70;46.40;;;;;;349529;28;1074;-56
2024/01/12 00:34:16;;;;;;;3.28;2.50;;;7.70;46.40;;;;;;349645;28;1070;-57
2024/01/12 00:34:27;;;;;;;3.70;2.85;;;7.70;46.30;;;;;;349613;28;1410;-57
2024/01/12 00:34:38;;;;;;;4.33;2.90;;;7.70;46.30;;;;;;349523;28;1270;-56
2024/01/12 00:34:48;;;;;;;4.30;3.03;;;7.70;46.30;;;;;;349694;28;998;-57
2024/01/12 00:34:59;;;;;;;4.25;2.95;;;7.70;46.30;;;;;;349637;28;1173;-56
2024/01/12 00:35:10;;;;;;;3.80;2.95;;;7.70;46.30;;;;;;349575;28;1048;-57
2024/01/12 00:35:21;;;;;;;4.20;2.90;;;7.70;46.30;;;;;;349673;28;916;-57
2024/01/12 00:35:31;;;;;;;3.90;2.83;;;7.70;46.30;;;;;;349594;28;1165;-56
2024/01/12 00:35:42;;;;;;;4.50;3.10;;;7.70;46.30;;;;;;349557;28;1010;-57
2024/01/12 00:35:54;;;;;;;4.97;3.40;;;7.70;46.30;;;;;;349635;28;1114;-58
2024/01/12 00:36:05;;;;;;;4.93;3.55;;;7.70;46.40;;;;;;349569;28;979;-57
2024/01/12 00:36:16;;;;;;;4.35;3.40;;;7.70;46.30;;;;;;349619;28;1410;-55
2024/01/12 00:36:27;;;;;;;4.00;3.13;;;7.70;46.30;;;;;;349632;28;1007;-57
2024/01/12 00:36:37;;;;;;;3.85;2.90;;;7.70;46.30;;;;;;349583;28;899;-56
2024/01/12 00:36:49;;;;;;;3.73;2.80;;;7.70;46.20;;;;;;349631;28;1039;-57
2024/01/12 00:37:00;;;;;;;3.92;2.92;;;7.70;46.30;;;;;;349576;28;1315;-55
2024/01/12 00:37:10;;;;;;;4.22;2.95;;;7.70;46.30;;;;;;349691;28;847;-57
2024/01/12 00:37:21;;;;;;;4.32;3.10;;;7.70;46.30;;;;;;349536;28;988;-56
2024/01/12 00:37:32;;;;;;;4.57;3.30;;;7.70;46.20;;;;;;349678;28;836;-56
2024/01/12 00:37:43;;;;;;;4.30;3.40;;;7.70;46.20;;;;;;349683;28;808;-57
2024/01/12 00:37:53;;;;;;;4.38;3.25;;;7.70;46.20;;;;;;349575;28;1221;-56
2024/01/12 00:38:04;;;;;;;4.40;3.20;;;7.70;46.10;;;;;;349570;28;1109;-57
2024/01/12 00:38:15;;;;;;;3.97;3.07;;;7.70;46.20;;;;;;349677;28;948;-56
2024/01/12 00:38:26;;;;;;;3.60;3.05;;;7.70;46.20;;;;;;349598;28;1727;-58
2024/01/12 00:38:37;;;;;;;3.60;2.97;;;7.70;46.20;;;;;;349649;28;1071;-56
2024/01/12 00:38:47;;;;;;;3.92;3.08;;;7.70;46.20;;;;;;349628;28;994;-56
2024/01/12 00:38:58;;;;;;;3.90;3.13;;;7.70;46.20;;;;;;349657;28;816;-57
2024/01/12 00:39:09;;;;;;;4.20;3.28;;;7.70;46.30;;;;;;349744;28;995;-57
2024/01/12 00:39:20;;;;;;;4.50;3.53;;;7.70;46.30;;;;;;349664;28;1015;-57
2024/01/12 00:39:32;;;;;;;5.27;3.40;;;7.70;46.30;;;;;;349541;28;1123;-56
2024/01/12 00:39:42;;;;;;;5.22;3.47;;;7.70;46.30;;;;;;349669;28;857;-57
2024/01/12 00:39:53;;;;;;;5.07;3.28;;;7.70;46.40;;;;;;349672;28;832;-57
2024/01/12 00:40:04;;;;;;;5.03;3.67;;;7.70;46.40;;;;;;349522;28;1181;-56
2024/01/12 00:40:15;;;;;;;5.25;3.80;;;7.70;46.40;;;;;;349638;28;1003;-59
2024/01/12 00:40:26;;;;;;;5.35;4.03;;;7.70;46.50;;;;;;349645;28;971;-56
2024/01/12 00:40:37;;;;;;;5.07;3.90;;;7.60;46.50;;;;;;349677;28;887;-57
2024/01/12 00:40:47;;;;;;;4.95;3.90;;;7.60;46.50;;;;;;349631;28;1001;-57
2024/01/12 00:40:58;;;;;;;4.72;3.72;;;7.70;46.50;;;;;;349611;28;1083;-56
2024/01/12 00:41:09;;;;;;;4.57;3.60;;;7.70;46.50;;;;;;349638;28;1019;-56
2024/01/12 00:41:20;;;;;;;4.68;3.53;;;7.60;46.50;;;;;;349568;28;1110;-57
2024/01/12 00:41:30;;;;;;;5.10;3.70;;;7.70;46.50;;;;;;349604;28;999;-58
2024/01/12 00:41:41;;;;;;;5.65;3.97;;;7.70;46.60;;;;;;349631;28;1079;-56
2024/01/12 00:41:52;;;;;;;5.93;4.18;;;7.60;46.70;;;;;;349649;28;979;-56
2024/01/12 00:42:03;;;;;;;5.95;4.30;;;7.60;46.90;;;;;;349540;28;1037;-56
2024/01/12 00:42:14;;;;;;;6.30;4.43;;;7.60;46.90;;;;;;349616;28;1658;-56
2024/01/12 00:42:25;;;;;;;5.97;4.13;;;7.60;46.80;;;;;;349425;28;1572;-56
2024/01/12 00:42:36;;;;;;;5.20;3.63;;;7.60;46.70;;;;;;349531;28;1176;-56
2024/01/12 00:42:47;;;;;;;4.47;3.30;;;7.70;46.60;;;;;;349652;28;1150;-56
2024/01/12 00:42:57;;;;;;;4.53;3.30;;;7.70;46.50;;;;;;349565;28;1399;-56
2024/01/12 00:43:08;;;;;;;4.47;3.30;;;7.70;46.40;;;;;;349647;28;983;-57
2024/01/12 00:43:19;;;;;;;5.32;3.58;;;7.70;46.40;;;;;;349594;28;1048;-56
2024/01/12 00:43:30;;;;;;;5.57;3.65;;;7.70;46.50;;;;;;349663;28;888;-56
2024/01/12 00:43:41;;;;;;;5.90;3.88;;;7.70;46.50;;;;;;349637;28;919;-56
2024/01/12 00:43:52;;;;;;;5.57;3.93;;;7.70;46.50;;;;;;349544;28;1145;-55
2024/01/12 00:44:04;;;;;;;5.93;3.92;;;7.70;46.60;;;;;;349630;28;1425;-56
2024/01/12 00:44:15;;;;;;;5.45;3.50;;;7.70;46.60;;;;;;349609;28;1110;-56
2024/01/12 00:44:26;;;;;;;5.18;3.35;;;7.60;46.60;;;;;;349551;28;991;-56
2024/01/12 00:44:36;;;;;;;5.38;3.60;;;7.60;46.60;;;;;;349675;28;1011;-56
2024/01/12 00:44:47;;;;;;;6.10;3.88;;;7.70;46.60;;;;;;349667;28;1014;-57
2024/01/12 00:44:58;;;;;;;6.00;3.80;;;7.70;46.50;;;;;;349683;28;817;-57
2024/01/12 00:45:09;;;;;;;6.20;3.40;;;7.70;46.50;;;;;;349555;28;1139;-57
2024/01/12 00:45:20;;;;;;;5.78;3.45;;;7.70;46.50;;;;;;349606;28;1027;-56
2024/01/12 00:45:30;;;;;;;5.43;3.50;;;7.60;46.50;;;;;;349662;28;880;-56
2024/01/12 00:45:41;;;;;;;5.47;3.67;;;7.70;46.50;;;;;;349565;28;991;-56
2024/01/12 00:45:52;;;;;;;5.30;3.40;;;7.70;46.40;;;;;;349674;28;884;-56
2024/01/12 00:46:03;;;;;;;4.85;3.28;;;7.70;46.40;;;;;;349622;28;1055;-56
2024/01/12 00:46:14;;;;;;;4.25;3.15;;;7.70;46.40;;;;;;349647;28;947;-57
2024/01/12 00:46:25;;;;;;;4.65;3.20;;;7.70;46.40;;;;;;349501;28;1450;-57
2024/01/12 00:46:36;;;;;;;4.75;3.00;;;7.60;46.40;;;;;;349630;28;1098;-56
2024/01/12 00:46:50;;;;;;;5.13;3.13;;;7.60;46.40;;;;;;349693;28;1006;-55
2024/01/12 00:47:01;;;;;;;4.40;3.00;;;7.70;46.40;;;;;;349545;28;914;-56
2024/01/12 00:47:12;;;;;;;3.95;3.00;;;7.60;46.30;;;;;;349647;28;884;-57
2024/01/12 00:47:23;;;;;;;3.92;3.17;;;7.70;46.30;;;;;;349644;28;817;-57
2024/01/12 00:47:33;;;;;;;3.97;3.10;;;7.60;46.30;;;;;;349585;28;1106;-57
2024/01/12 00:47:44;;;;;;;3.97;3.10;;;7.60;46.40;;;;;;349633;28;1062;-56
2024/01/12 00:47:55;;;;;;;4.38;3.10;;;7.70;46.40;;;;;;349630;28;821;-57
2024/01/12 00:48:06;;;;;;;4.70;3.30;;;7.60;46.40;;;;;;349563;28;1019;-57
2024/01/12 00:48:17;;;;;;;4.93;3.33;;;7.60;46.50;;;;;;349625;28;1027;-57
2024/01/12 00:48:27;;;;;;;5.20;3.45;;;7.60;46.60;;;;;;349610;28;1098;-57
2024/01/12 00:48:38;;;;;;;5.38;3.50;;;7.60;46.50;;;;;;349536;28;1169;-56
2024/01/12 00:48:50;;;;;;;5.78;3.47;;;7.60;46.60;;;;;;349603;28;2572;-57
2024/01/12 00:49:01;;;;;;;5.64;3.40;;;7.60;46.60;;;;;;349597;28;1126;-58
2024/01/12 00:49:11;;;;;;;5.17;3.43;;;7.60;46.60;;;;;;349515;28;1442;-57
2024/01/12 00:49:22;;;;;;;5.43;3.47;;;7.60;46.60;;;;;;349609;28;1090;-56
2024/01/12 00:49:33;;;;;;;5.38;3.40;;;7.60;46.70;;;;;;349644;28;967;-56
2024/01/12 00:49:44;;;;;;;5.10;3.30;;;7.60;46.80;;;;;;349602;28;1008;-57
2024/01/12 00:49:55;;;;;;;4.60;3.20;;;7.60;46.80;;;;;;349605;28;1094;-56
2024/01/12 00:50:06;;;;;;;4.63;3.20;;;7.60;46.80;;;;;;349663;28;991;-57
2024/01/12 00:50:17;;;;;;;4.70;3.10;;;7.60;46.70;;;;;;349557;28;1140;-56
2024/01/12 00:50:27;;;;;;;4.82;3.22;;;7.60;46.60;;;;;;349649;28;857;-57
2024/01/12 00:50:38;;;;;;;4.90;3.33;;;7.60;46.60;;;;;;349603;28;1020;-56
2024/01/12 00:50:50;;;;;;;4.70;3.46;;;7.60;46.50;;;;;;349573;28;1057;-56
2024/01/12 00:51:01;;;;;;;3.92;3.22;;;7.60;46.60;;;;;;349748;28;1169;-58
2024/01/12 00:51:12;;;;;;;5.15;3.20;;;7.60;46.60;;;;;;349667;28;860;-56
2024/01/12 00:51:22;;;;;;;5.13;3.00;;;7.60;46.60;;;;;;349539;28;1023;-55
2024/01/12 00:51:33;;;;;;;4.85;2.83;;;7.60;46.50;;;;;;349648;28;1103;-56
2024/01/12 00:51:45;;;;;;;3.50;2.60;;;7.60;46.50;;;;;;349611;28;1052;-57
2024/01/12 00:51:55;;;;;;;3.53;2.63;;;7.60;46.60;;;;;;349466;28;1906;-57
2024/01/12 00:52:06;;;;;;;4.13;2.72;;;7.60;46.60;;;;;;349709;28;928;-57
2024/01/12 00:52:17;;;;;;;4.40;2.83;;;7.60;46.50;;;;;;349597;28;1169;-58
2024/01/12 00:52:28;;;;;;;4.28;2.80;;;7.60;46.60;;;;;;349638;28;1142;-57
2024/01/12 00:52:38;;;;;;;3.93;2.83;;;7.70;46.60;;;;;;349696;28;1601;-56
2024/01/12 00:52:49;;;;;;;3.70;2.90;;;7.60;46.60;;;;;;349661;28;1085;-56
2024/01/12 00:53:00;;;;;;;3.72;2.85;;;7.60;46.60;;;;;;349634;28;947;-56
2024/01/12 00:53:11;;;;;;;4.50;2.85;;;7.70;46.50;;;;;;349588;28;907;-56
2024/01/12 00:53:22;;;;;;;4.95;2.83;;;7.70;46.50;;;;;;349622;28;1271;-57
2024/01/12 00:53:34;;;;;;;5.20;3.05;;;7.70;46.50;;;;;;349664;28;927;-57
2024/01/12 00:53:45;;;;;;;4.15;2.85;;;7.70;46.50;;;;;;349674;28;999;-56
2024/01/12 00:53:55;;;;;;;4.07;2.83;;;7.70;46.40;;;;;;349548;28;1335;-56
2024/01/12 00:54:07;;;;;;;4.10;2.73;;;7.70;46.30;;;;;;349605;28;2049;-56
2024/01/12 00:54:20;;;;;;;4.47;2.70;;;7.70;46.20;;;;;;349661;28;828;-57
2024/01/12 00:54:31;;;;;;;3.65;2.53;;;7.70;46.20;;;;;;349642;28;1038;-58
2024/01/12 00:54:41;;;;;;;3.15;2.50;;;7.70;46.10;;;;;;349565;28;1169;-56
2024/01/12 00:54:52;;;;;;;3.20;2.50;;;7.70;46.10;;;;;;349635;28;1310;-56
2024/01/12 00:55:03;;;;;;;3.95;2.70;;;7.70;46.10;;;;;;349546;28;1043;-56
2024/01/12 00:55:14;;;;;;;4.28;3.00;;;7.70;46.20;;;;;;349693;28;931;-57
2024/01/12 00:55:25;;;;;;;3.97;3.00;;;7.70;46.20;;;;;;349613;28;1002;-55
2024/01/12 00:55:36;;;;;;;3.70;2.95;;;7.70;46.20;;;;;;349564;28;1007;-56
2024/01/12 00:55:47;;;;;;;3.90;3.00;;;7.70;46.10;;;;;;349680;28;848;-57
2024/01/12 00:55:57;;;;;;;3.80;2.90;;;7.70;46.10;;;;;;349621;28;1011;-57
2024/01/12 00:56:08;;;;;;;3.92;2.80;;;7.70;46.10;;;;;;349679;28;909;-56
2024/01/12 00:56:19;;;;;;;4.03;2.80;;;7.70;46.20;;;;;;349600;28;1079;-56
2024/01/12 00:56:30;;;;;;;4.53;3.13;;;7.70;46.20;;;;;;349536;28;1102;-57
2024/01/12 00:56:41;;;;;;;4.60;3.28;;;7.70;46.30;;;;;;349624;28;1014;-55
2024/01/12 00:56:53;;;;;;;4.50;3.30;;;7.70;46.40;;;;;;349654;28;972;-57
2024/01/12 00:57:04;;;;;;;5.32;3.28;;;7.70;46.40;;;;;;349580;28;1437;-56
2024/01/12 00:57:14;;;;;;;5.13;3.22;;;7.70;46.40;;;;;;349517;28;1303;-57
2024/01/12 00:57:25;;;;;;;5.17;3.00;;;7.70;46.40;;;;;;349589;28;1138;-56
2024/01/12 00:57:36;;;;;;;4.22;2.95;;;7.70;46.50;;;;;;349635;28;856;-56
2024/01/12 00:57:47;;;;;;;4.20;2.90;;;7.70;46.50;;;;;;349645;28;828;-57
2024/01/12 00:57:58;;;;;;;3.80;3.08;;;7.70;46.50;;;;;;349552;28;848;-57
2024/01/12 00:58:09;;;;;;;4.28;3.35;;;7.70;46.50;;;;;;349660;28;801;-56
2024/01/12 00:58:20;;;;;;;4.45;3.35;;;7.70;46.50;;;;;;349605;28;975;-58
2024/01/12 00:58:30;;;;;;;4.40;3.38;;;7.70;46.50;;;;;;349671;28;797;-56
2024/01/12 00:58:41;;;;;;;3.78;3.03;;;7.70;46.40;;;;;;349616;28;992;-55
2024/01/12 00:58:52;;;;;;;4.57;3.15;;;7.70;46.40;;;;;;349650;28;963;-56
2024/01/12 00:59:03;;;;;;;4.87;3.07;;;7.70;46.40;;;;;;349604;28;1328;-56
2024/01/12 00:59:14;;;;;;;5.50;3.30;;;7.70;46.40;;;;;;349569;28;991;-56
2024/01/12 00:59:25;;;;;;;5.43;3.20;;;7.70;46.40;;;;;;349572;28;964;-56
2024/01/12 00:59:35;;;;;;;5.17;2.97;;;7.70;46.30;;;;;;349668;28;924;-57
2024/01/12 00:59:46;;;;;;;4.32;2.75;;;7.70;46.30;;;;;;349694;28;848;-56